Time;durP1;ratioP1;P1;durP2;ratioP2;P2;SDS_P1;SDS_P2;PMS_P1;PMS_P2;Temp;Humidity;BMP_temperature;BMP_pressure;BME280_temperature;BME280_humidity;BME280_pressure;Samples;Min_cycle;Max_cycle;Signal;HPM_P1;HPM_P2
2023/04/13 00:01:10;;;;;;;1.60;1.00;;;9.40;97.10;;;;;;4951585;28;20458;-85
2023/04/13 00:03:56;;;;;;;1.90;0.80;;;9.40;96.80;;;;;;4973201;28;20521;-84
2023/04/13 00:06:57;;;;;;;2.10;0.80;;;9.40;96.70;;;;;;4960808;28;20480;-84
2023/04/13 00:09:57;;;;;;;1.67;0.87;;;9.60;96.10;;;;;;4974606;28;20589;-83
2023/04/13 00:13:06;;;;;;;1.00;0.63;;;9.50;95.80;;;;;;4975899;28;20494;-83
2023/04/13 00:16:31;;;;;;;0.70;0.70;;;9.50;95.60;;;;;;4975469;28;20495;-84
2023/04/13 00:20:06;;;;;;;;;;;;;;;;;;;;;
2023/04/13 00:22:52;;;;;;;0.73;0.57;;;9.60;95.00;;;;;;4997942;28;20480;-83
2023/04/13 00:25:36;;;;;;;2.07;0.90;;;9.80;94.80;;;;;;4959773;28;20491;-83
2023/04/13 00:29:03;;;;;;;0.70;0.70;;;9.70;94.50;;;;;;4948247;28;20521;-83
2023/04/13 00:31:44;;;;;;;1.07;0.60;;;9.80;94.50;;;;;;4959250;28;20513;-83
2023/04/13 00:34:35;;;;;;;1.97;0.80;;;9.80;94.30;;;;;;4953534;28;20521;-84
2023/04/13 00:37:32;;;;;;;1.37;0.67;;;9.80;94.30;;;;;;4955446;29;20437;-85
2023/04/13 00:40:23;;;;;;;0.60;0.60;;;9.90;94.00;;;;;;4923646;29;20434;-85
2023/04/13 00:43:33;;;;;;;1.47;0.63;;;9.90;94.00;;;;;;4938202;28;20539;-84
2023/04/13 00:46:53;;;;;;;1.63;0.77;;;9.90;94.00;;;;;;4988735;28;20575;-84
2023/04/13 00:49:59;;;;;;;0.73;0.50;;;9.70;93.90;;;;;;4975335;28;20570;-83
2023/04/13 00:53:22;;;;;;;1.73;0.80;;;9.80;93.70;;;;;;4977088;28;20535;-85
2023/04/13 00:56:14;;;;;;;1.13;0.70;;;9.90;93.60;;;;;;4990171;28;20610;-84
2023/04/13 00:59:27;;;;;;;0.93;0.47;;;9.80;93.50;;;;;;4993921;28;20459;-84
2023/04/13 01:02:27;;;;;;;0.60;0.50;;;9.90;93.60;;;;;;4979333;28;20610;-82
2023/04/13 01:05:44;;;;;;;;;;;;;;;;;;;;;
2023/04/13 01:08:39;;;;;;;0.93;0.60;;;10.00;92.80;;;;;;4980377;28;20456;-83
2023/04/13 01:12:02;;;;;;;0.53;0.53;;;9.80;93.30;;;;;;4974918;28;20483;-83
2023/04/13 01:15:13;;;;;;;1.23;0.60;;;9.80;93.20;;;;;;4965513;28;20464;-83
2023/04/13 01:18:24;;;;;;;1.43;0.60;;;9.80;93.30;;;;;;4960473;28;20452;-84
2023/04/13 01:21:24;;;;;;;1.67;0.63;;;9.90;93.40;;;;;;4987813;28;20975;-83
2023/04/13 01:28:12;;;;;;;1.00;0.77;;;9.90;93.40;;;;;;4990662;28;20468;-83
2023/04/13 01:31:03;;;;;;;1.90;0.80;;;9.90;93.50;;;;;;4955396;28;20469;-83
2023/04/13 01:34:37;;;;;;;0.97;0.60;;;9.80;93.60;;;;;;4978869;28;20800;-82
2023/04/13 01:40:49;;;;;;;;;;;;;;;;;;;;;
2023/04/13 01:43:30;;;;;;;2.40;0.90;;;9.90;93.60;;;;;;4980073;28;20456;-83
2023/04/13 01:46:33;;;;;;;1.23;0.50;;;9.90;93.70;;;;;;4969597;28;20506;-82
2023/04/13 01:49:12;;;;;;;1.67;0.63;;;9.90;93.50;;;;;;4988076;28;20452;-83
2023/04/13 01:51:54;;;;;;;0.87;0.80;;;9.70;93.70;;;;;;4978390;28;20476;-83
2023/04/13 01:58:49;;;;;;;1.23;0.60;;;9.70;93.90;;;;;;4978956;28;21156;-84
2023/04/13 02:01:51;;;;;;;2.40;0.83;;;9.80;93.90;;;;;;4989359;28;20435;-83
2023/04/13 02:04:35;;;;;;;1.40;0.77;;;9.80;93.80;;;;;;4989027;28;20467;-81
2023/04/13 02:07:40;;;;;;;4.37;0.90;;;9.90;93.80;;;;;;4986363;28;20459;-85
2023/04/13 02:10:54;;;;;;;1.23;0.50;;;9.90;93.70;;;;;;4974268;28;20448;-83
2023/04/13 02:14:00;;;;;;;0.97;0.60;;;9.90;93.70;;;;;;4977307;28;20478;-83
2023/04/13 02:16:49;;;;;;;0.73;0.73;;;9.80;93.80;;;;;;4978941;28;20484;-82
2023/04/13 02:19:55;;;;;;;;;;;;;;;;;;;;;
2023/04/13 02:27:01;;;;;;;2.03;0.60;;;9.90;93.80;;;;;;4986579;28;20492;-84
2023/04/13 02:29:52;;;;;;;0.67;0.60;;;9.90;93.90;;;;;;4989977;28;20495;-84
2023/04/13 02:33:30;;;;;;;3.33;0.80;;;9.90;93.90;;;;;;4985134;28;20570;-83
2023/04/13 02:36:46;;;;;;;2.80;0.77;;;9.80;94.10;;;;;;4975807;28;20464;-83
2023/04/13 02:39:46;;;;;;;4.40;0.80;;;9.80;94.20;;;;;;4979955;28;20479;-85
2023/04/13 02:42:41;;;;;;;1.23;0.80;;;9.80;94.30;;;;;;4991220;28;20479;-82
2023/04/13 02:46:00;;;;;;;1.50;0.57;;;9.90;94.20;;;;;;4981703;28;20479;-82
2023/04/13 02:48:44;;;;;;;1.00;0.60;;;9.90;94.20;;;;;;4988929;28;20491;-83
2023/04/13 02:51:36;;;;;;;;;;;;;;;;;;;;;
2023/04/13 02:54:47;;;;;;;1.13;0.50;;;9.90;94.10;;;;;;4968621;28;20439;-84
2023/04/13 02:57:34;;;;;;;1.43;0.70;;;10.00;93.50;;;;;;4988282;28;20471;-84
2023/04/13 03:04:15;;;;;;;0.90;0.67;;;9.90;94.00;;;;;;4974414;28;20456;-84
2023/04/13 03:07:30;;;;;;;2.70;0.70;;;9.80;94.30;;;;;;4983733;28;20482;-83
2023/04/13 03:10:46;;;;;;;;;;;;;;;;;;;;;
2023/04/13 03:13:45;;;;;;;2.07;1.60;;;10.00;93.50;;;;;;4970786;28;20984;-83
2023/04/13 03:16:30;;;;;;;1.97;0.90;;;10.00;93.50;;;;;;4973977;28;20486;-83
2023/04/13 03:19:24;;;;;;;0.90;0.63;;;10.00;93.50;;;;;;4988014;28;20456;-81
2023/04/13 03:22:29;;;;;;;0.50;0.50;;;9.90;94.20;;;;;;4969903;28;20455;-83
2023/04/13 03:25:09;;;;;;;1.33;0.53;;;9.90;94.40;;;;;;4985259;28;20480;-83
2023/04/13 03:28:25;;;;;;;1.33;0.60;;;9.90;94.60;;;;;;4989631;28;20526;-84
2023/04/13 03:31:25;;;;;;;;;;;;;;;;;;;;;
2023/04/13 03:34:27;;;;;;;0.90;0.50;;;9.90;94.50;;;;;;4950293;28;20507;-83
2023/04/13 03:37:33;;;;;;;;;;;;;;;;;;;;;
2023/04/13 03:40:25;;;;;;;1.87;0.67;;;9.90;94.60;;;;;;4960271;28;20516;-84
2023/04/13 03:43:38;;;;;;;2.20;0.73;;;9.90;94.60;;;;;;4947248;28;20843;-84
2023/04/13 03:46:48;;;;;;;1.80;0.83;;;9.90;94.60;;;;;;4865998;29;21012;-84
2023/04/13 03:50:11;;;;;;;0.73;0.53;;;10.00;94.20;;;;;;4882092;29;20452;-83
2023/04/13 03:53:44;;;;;;;;;;;;;;;;;;;;;
2023/04/13 03:56:57;;;;;;;;;;;;;;;;;;;;;
2023/04/13 04:00:17;;;;;;;3.43;1.10;;;10.00;94.30;;;;;;4867379;29;20441;-84
2023/04/13 04:03:00;;;;;;;0.80;0.50;;;9.90;95.00;;;;;;4885978;29;20456;-83
2023/04/13 04:05:58;;;;;;;1.80;0.73;;;10.00;94.40;;;;;;4870940;29;20525;-84
2023/04/13 04:08:54;;;;;;;0.90;0.70;;;10.00;94.50;;;;;;4887930;29;20448;-83
2023/04/13 04:11:53;;;;;;;1.60;0.80;;;10.00;94.50;;;;;;4883002;29;20448;-82
2023/04/13 04:15:04;;;;;;;1.40;0.80;;;10.00;94.50;;;;;;4910873;29;20466;-83
2023/04/13 04:18:13;;;;;;;1.50;0.70;;;10.00;94.40;;;;;;4921798;29;20443;-83
2023/04/13 04:24:41;;;;;;;0.93;0.50;;;10.10;94.60;;;;;;4954209;28;20467;-83
2023/04/13 04:28:37;;;;;;;2.73;0.70;;;10.00;94.60;;;;;;4985079;28;20459;-83
2023/04/13 04:31:54;;;;;;;3.03;0.57;;;10.00;94.60;;;;;;4974313;28;20886;-85
2023/04/13 04:38:25;;;;;;;1.07;0.60;;;10.00;94.70;;;;;;4937728;29;20553;-85
2023/04/13 04:41:36;;;;;;;2.00;0.70;;;10.00;94.60;;;;;;4941823;29;20497;-84
2023/04/13 04:51:58;;;;;;;2.30;0.87;;;9.90;95.80;;;;;;4932583;29;20524;-83
2023/04/13 04:55:00;;;;;;;1.67;0.60;;;10.00;95.30;;;;;;4951042;29;20457;-85
2023/04/13 04:57:48;;;;;;;1.33;0.60;;;10.00;95.00;;;;;;4948914;29;20466;-85
2023/04/13 05:01:16;;;;;;;5.17;4.87;;;10.00;94.90;;;;;;4936409;29;20465;-84
2023/04/13 05:04:29;;;;;;;1.13;0.80;;;10.00;95.10;;;;;;4977917;28;20452;-85
2023/04/13 05:07:31;;;;;;;;;;;;;;;;;;;;;
2023/04/13 05:10:36;;;;;;;1.40;0.67;;;10.00;95.30;;;;;;4991789;28;20476;-83
2023/04/13 05:13:55;;;;;;;;;;;;;;;;;;;;;
2023/04/13 05:16:54;;;;;;;1.17;0.53;;;10.10;94.70;;;;;;4988690;28;20484;-82
2023/04/13 05:19:54;;;;;;;1.80;0.67;;;10.30;94.90;;;;;;4989579;28;20470;-85
2023/04/13 05:26:27;;;;;;;1.17;1.07;;;9.80;95.90;;;;;;4987457;28;20507;-84
2023/04/13 05:29:24;;;;;;;2.13;1.93;;;9.80;96.20;;;;;;5009306;28;20478;-84
2023/04/13 05:32:28;;;;;;;0.53;0.50;;;9.70;96.50;;;;;;4998298;28;20941;-85
2023/04/13 05:35:22;;;;;;;1.10;0.43;;;9.70;96.70;;;;;;5002793;28;20544;-84
2023/04/13 05:38:23;;;;;;;3.40;0.93;;;10.10;95.80;;;;;;5011804;28;20444;-82
2023/04/13 05:41:12;;;;;;;2.07;1.00;;;10.00;95.30;;;;;;4990770;28;20432;-82
2023/04/13 05:44:03;;;;;;;0.70;0.50;;;9.80;96.00;;;;;;4977736;28;20459;-82
2023/04/13 05:46:39;;;;;;;0.30;0.30;;;9.90;96.10;;;;;;4979389;28;20480;-81
2023/04/13 05:50:15;;;;;;;2.33;0.40;;;10.00;95.20;;;;;;4977907;28;20516;-81
2023/04/13 05:53:06;;;;;;;1.23;0.60;;;10.30;95.00;;;;;;4977111;28;20480;-81
2023/04/13 05:55:42;;;;;;;0.70;0.70;;;10.20;95.30;;;;;;4997825;28;20492;-86
2023/04/13 05:58:13;;;;;;;0.60;0.60;;;9.90;96.20;;;;;;4997988;28;20463;-83
2023/04/13 06:01:11;;;;;;;1.07;0.67;;;9.80;96.70;;;;;;4980708;28;20536;-82
2023/04/13 06:04:05;;;;;;;3.90;0.70;;;9.80;97.20;;;;;;4972493;28;20463;-82
2023/04/13 06:06:46;;;;;;;1.07;0.60;;;10.00;96.30;;;;;;4994192;28;20488;-82
2023/04/13 06:12:35;;;;;;;0.60;0.60;;;10.30;95.60;;;;;;4974412;28;20498;-83
2023/04/13 06:15:24;;;;;;;2.10;0.80;;;10.20;95.60;;;;;;4992979;28;20543;-82
2023/04/13 06:17:55;;;;;;;0.80;0.50;;;10.10;95.60;;;;;;4994101;28;20461;-82
2023/04/13 06:20:33;;;;;;;0.90;0.43;;;10.10;95.40;;;;;;4982932;28;20472;-83
2023/04/13 06:23:49;;;;;;;0.90;0.60;;;10.00;95.60;;;;;;4991999;28;20464;-83
2023/04/13 06:26:30;;;;;;;1.43;0.70;;;10.10;95.70;;;;;;4978512;28;20472;-83
2023/04/13 06:29:11;;;;;;;0.90;0.80;;;9.90;96.00;;;;;;4983059;28;20467;-85
2023/04/13 06:32:14;;;;;;;2.00;0.60;;;9.70;96.50;;;;;;4979205;28;20467;-82
2023/04/13 06:35:11;;;;;;;1.37;0.50;;;9.80;97.10;;;;;;4979473;28;20463;-83
2023/04/13 06:37:50;;;;;;;0.80;0.43;;;9.80;96.90;;;;;;4997222;28;20460;-84
2023/04/13 06:40:27;;;;;;;2.10;0.80;;;10.10;95.70;;;;;;4982996;28;20468;-82
2023/04/13 06:43:33;;;;;;;2.20;0.63;;;10.00;95.40;;;;;;4983498;28;20538;-84
2023/04/13 06:46:20;;;;;;;0.90;0.43;;;9.80;96.40;;;;;;4972485;28;20536;-84
2023/04/13 06:48:50;;;;;;;1.20;0.50;;;9.90;96.40;;;;;;4998818;28;20460;-84
2023/04/13 06:51:42;;;;;;;0.90;0.60;;;10.10;95.70;;;;;;4997346;28;20467;-84
2023/04/13 06:54:21;;;;;;;0.90;0.47;;;10.20;95.60;;;;;;4980854;28;20484;-84
2023/04/13 06:57:12;;;;;;;2.00;0.73;;;10.40;95.00;;;;;;4985071;28;20468;-85
2023/04/13 07:00:07;;;;;;;1.00;0.50;;;10.60;94.70;;;;;;4979311;28;20452;-84
2023/04/13 07:03:01;;;;;;;0.60;0.50;;;11.10;94.70;;;;;;4986961;28;20511;-84
2023/04/13 07:05:47;;;;;;;1.50;0.50;;;12.30;93.20;;;;;;4984080;28;20503;-85
2023/04/13 07:08:33;;;;;;;1.90;0.60;;;12.60;91.10;;;;;;5008661;28;20483;-83
2023/04/13 07:11:11;;;;;;;1.23;0.40;;;12.30;91.20;;;;;;4984370;28;20459;-83
2023/04/13 07:13:52;;;;;;;0.90;0.50;;;12.40;91.40;;;;;;4990950;28;20484;-83
2023/04/13 07:16:36;;;;;;;0.90;0.50;;;12.60;90.80;;;;;;4977887;28;20502;-84
2023/04/13 07:19:31;;;;;;;1.43;0.40;;;13.30;90.90;;;;;;4976578;28;20971;-84
2023/04/13 07:22:18;;;;;;;1.33;0.60;;;14.90;86.10;;;;;;4972901;28;20455;-83
2023/04/13 07:25:31;;;;;;;1.23;0.60;;;15.40;80.20;;;;;;4975699;28;20523;-83
2023/04/13 07:28:41;;;;;;;1.37;0.63;;;14.10;79.90;;;;;;4977765;28;20575;-84
2023/04/13 07:31:38;;;;;;;1.17;0.90;;;12.40;86.40;;;;;;4999514;28;20523;-85
2023/04/13 07:34:31;;;;;;;1.30;1.20;;;12.80;91.10;;;;;;4984954;28;20491;-82
2023/04/13 07:37:10;;;;;;;2.93;1.13;;;14.20;86.90;;;;;;4983433;28;20467;-82
2023/04/13 07:40:01;;;;;;;0.57;0.57;;;14.10;84.40;;;;;;4982602;28;20577;-84
2023/04/13 07:42:54;;;;;;;1.17;0.70;;;13.20;87.20;;;;;;4997271;28;20456;-82
2023/04/13 07:45:54;;;;;;;3.40;0.70;;;13.50;90.10;;;;;;4997105;28;20483;-82
2023/04/13 07:48:50;;;;;;;1.80;0.60;;;14.50;86.10;;;;;;4980395;28;20463;-84
2023/04/13 07:51:47;;;;;;;2.07;0.97;;;14.10;84.80;;;;;;4978500;28;20463;-83
2023/04/13 07:54:50;;;;;;;0.97;0.80;;;13.00;86.80;;;;;;4994660;28;20452;-83
2023/04/13 07:57:31;;;;;;;1.43;0.80;;;12.20;90.50;;;;;;4983621;28;20559;-83
2023/04/13 08:00:27;;;;;;;0.87;0.87;;;11.80;91.90;;;;;;4993050;28;20483;-84
2023/04/13 08:03:26;;;;;;;2.83;0.93;;;11.80;92.40;;;;;;4988221;28;20440;-85
2023/04/13 08:06:40;;;;;;;5.70;1.30;;;11.60;92.60;;;;;;5003018;28;20475;-84
2023/04/13 08:09:25;;;;;;;1.90;1.10;;;11.50;92.90;;;;;;5003387;28;20953;-84
2023/04/13 08:12:17;;;;;;;1.03;0.70;;;11.40;93.30;;;;;;5009807;28;20463;-84
2023/04/13 08:15:14;;;;;;;2.10;0.90;;;11.40;93.70;;;;;;4992722;28;20562;-84
2023/04/13 08:18:02;;;;;;;1.80;0.83;;;11.60;93.40;;;;;;4977826;28;20466;-84
2023/04/13 08:20:55;;;;;;;1.63;0.93;;;11.40;93.60;;;;;;4985822;28;20491;-85
2023/04/13 08:23:50;;;;;;;3.07;1.20;;;11.70;93.50;;;;;;4990510;28;20452;-85
2023/04/13 08:26:25;;;;;;;2.33;1.40;;;11.40;93.70;;;;;;4979523;28;20493;-83
2023/04/13 08:29:15;;;;;;;3.30;1.37;;;11.30;94.20;;;;;;4979658;28;20550;-84
2023/04/13 08:31:57;;;;;;;3.87;1.50;;;11.40;94.30;;;;;;4984553;28;20451;-84
2023/04/13 08:34:44;;;;;;;3.93;1.67;;;11.30;94.60;;;;;;4994219;28;20459;-85
2023/04/13 08:37:50;;;;;;;2.20;1.57;;;11.20;94.70;;;;;;4976198;28;20466;-85
2023/04/13 08:40:44;;;;;;;3.90;1.40;;;11.20;95.00;;;;;;4973698;28;20460;-84
2023/04/13 08:43:49;;;;;;;;;;;;;;;;;;;;;
2023/04/13 08:46:35;;;;;;;5.47;1.47;;;11.70;94.10;;;;;;4972487;28;20480;-84
2023/04/13 08:49:44;;;;;;;2.40;1.23;;;11.50;94.00;;;;;;4992338;28;20460;-84
2023/04/13 08:52:57;;;;;;;5.40;1.60;;;11.50;94.30;;;;;;4988997;28;20463;-82
2023/04/13 08:56:41;;;;;;;2.53;1.40;;;11.70;93.90;;;;;;4986971;28;20534;-84
2023/04/13 08:59:30;;;;;;;7.77;2.00;;;11.70;93.80;;;;;;4931772;29;20449;-86
2023/04/13 09:02:14;;;;;;;5.70;1.73;;;11.50;94.00;;;;;;4949889;28;20466;-85
2023/04/13 09:05:14;;;;;;;5.57;1.70;;;11.70;93.80;;;;;;4984760;28;20483;-84
2023/04/13 09:08:06;;;;;;;4.50;1.97;;;11.60;93.90;;;;;;4910235;29;20517;-84
2023/04/13 09:10:59;;;;;;;3.60;1.30;;;11.40;94.10;;;;;;4911631;29;20455;-85
2023/04/13 09:13:33;;;;;;;3.57;1.83;;;11.80;93.20;;;;;;4923592;29;20577;-86
2023/04/13 09:16:29;;;;;;;3.70;1.93;;;11.70;93.00;;;;;;4925101;29;20501;-84
2023/04/13 09:22:14;;;;;;;2.33;1.60;;;11.40;93.40;;;;;;4921490;29;20554;-83
2023/04/13 09:25:20;;;;;;;6.30;2.07;;;11.40;93.60;;;;;;4962527;22;20649;-83
2023/04/13 09:28:07;;;;;;;5.30;2.07;;;11.80;93.20;;;;;;5011335;28;20532;-83
2023/04/13 09:31:09;;;;;;;5.17;2.80;;;11.60;93.60;;;;;;4998400;28;20490;-85
2023/04/13 09:37:35;;;;;;;4.70;1.90;;;11.30;95.40;;;;;;4982785;28;20509;-84
2023/04/13 09:40:53;;;;;;;5.00;2.37;;;11.30;96.00;;;;;;4978604;28;21603;-85
2023/04/13 09:47:07;;;;;;;7.20;2.13;;;11.80;96.70;;;;;;4983421;28;20485;-85
2023/04/13 09:50:05;;;;;;;6.20;2.30;;;12.60;94.30;;;;;;5005790;28;20478;-85
2023/04/13 09:52:51;;;;;;;6.67;2.27;;;12.40;93.20;;;;;;4993800;28;20554;-87
2023/04/13 09:55:24;;;;;;;9.90;2.40;;;12.20;93.80;;;;;;4981933;28;20552;-85
2023/04/13 09:58:45;;;;;;;4.77;1.80;;;12.00;94.00;;;;;;5002644;28;21077;-87
2023/04/13 10:01:29;;;;;;;5.40;1.97;;;12.30;93.50;;;;;;5016763;28;20531;-85
2023/04/13 10:04:29;;;;;;;5.33;2.00;;;12.20;92.80;;;;;;5012238;28;20459;-84
2023/04/13 10:07:27;;;;;;;4.53;1.87;;;12.50;92.40;;;;;;4997538;28;20458;-83
2023/04/13 10:10:40;;;;;;;3.20;1.83;;;12.40;92.50;;;;;;4997645;28;20463;-81
2023/04/13 10:13:52;;;;;;;4.27;1.43;;;12.50;92.50;;;;;;4974023;28;20505;-84
2023/04/13 10:16:48;;;;;;;5.13;2.10;;;12.40;92.90;;;;;;4981316;28;20479;-84
2023/04/13 10:19:51;;;;;;;4.40;1.80;;;12.20;93.70;;;;;;4982189;28;20470;-85
2023/04/13 10:22:39;;;;;;;4.13;2.50;;;12.10;94.50;;;;;;4984846;28;21210;-85
2023/04/13 10:29:07;;;;;;;3.50;2.50;;;12.90;94.30;;;;;;4987757;28;20445;-83
2023/04/13 10:32:08;;;;;;;7.60;1.90;;;12.80;93.70;;;;;;5001231;28;20553;-86
2023/04/13 10:35:10;;;;;;;6.13;1.90;;;13.50;93.40;;;;;;4999204;28;20601;-84
2023/04/13 10:37:59;;;;;;;2.87;1.47;;;14.10;92.60;;;;;;4996464;28;20466;-84
2023/04/13 10:40:58;;;;;;;3.57;2.30;;;14.80;90.70;;;;;;4980719;28;20466;-84
2023/04/13 10:44:26;;;;;;;5.80;2.43;;;15.10;87.40;;;;;;4996175;28;20474;-84
2023/04/13 10:47:58;;;;;;;4.47;2.30;;;15.00;88.10;;;;;;4995574;28;20466;-85
2023/04/13 10:57:17;;;;;;;6.00;2.03;;;14.60;86.20;;;;;;4981269;28;20490;-85
2023/04/13 11:00:38;;;;;;;6.70;2.10;;;14.40;85.30;;;;;;4977494;28;20463;-85
2023/04/13 11:03:53;;;;;;;6.50;2.10;;;13.90;86.10;;;;;;4982132;28;20455;-85
2023/04/13 11:06:59;;;;;;;7.37;2.40;;;13.60;88.00;;;;;;4945105;28;20483;-85
2023/04/13 11:09:50;;;;;;;7.23;2.87;;;14.30;85.10;;;;;;4920410;28;20603;-87
2023/04/13 11:16:13;;;;;;;7.47;1.87;;;14.20;82.30;;;;;;4957019;28;20839;-85
2023/04/13 11:18:45;;;;;;;3.67;1.80;;;14.00;79.80;;;;;;4953133;28;20476;-85
2023/04/13 11:21:43;;;;;;;5.40;2.20;;;13.80;80.00;;;;;;4956588;28;20898;-86
2023/04/13 11:27:43;;;;;;;4.90;2.10;;;13.70;79.10;;;;;;4954436;28;20476;-86
2023/04/13 11:30:34;;;;;;;4.90;2.20;;;13.60;79.60;;;;;;4950742;28;20467;-83
2023/04/13 11:33:35;;;;;;;5.80;2.00;;;13.60;80.20;;;;;;4954747;28;20467;-85
2023/04/13 11:36:29;;;;;;;4.87;2.00;;;13.60;80.60;;;;;;4953879;28;20484;-86
2023/04/13 11:39:30;;;;;;;8.57;2.40;;;13.40;82.30;;;;;;4951014;28;20456;-84
2023/04/13 11:42:21;;;;;;;4.33;1.80;;;13.70;82.00;;;;;;4952276;28;20955;-84
2023/04/13 11:45:29;;;;;;;6.47;2.40;;;13.60;81.60;;;;;;4952528;28;20479;-86
2023/04/13 11:48:34;;;;;;;5.93;2.90;;;13.60;83.50;;;;;;4965232;28;20479;-85
2023/04/13 11:51:32;;;;;;;5.37;3.30;;;14.20;83.50;;;;;;4931351;28;20474;-87
2023/04/13 11:54:30;;;;;;;;;;;;;;;;;;;;;
2023/04/13 12:01:29;;;;;;;6.60;1.90;;;15.30;74.20;;;;;;4938054;28;20453;-82
2023/04/13 12:04:26;;;;;;;4.17;2.20;;;15.20;73.70;;;;;;4945755;28;20462;-83
2023/04/13 12:07:42;;;;;;;8.63;2.73;;;14.80;72.20;;;;;;4925481;28;20540;-85
2023/04/13 12:11:20;;;;;;;5.40;1.73;;;14.70;70.30;;;;;;4912158;29;20472;-84
2023/04/13 12:14:33;;;;;;;4.27;2.00;;;14.60;69.90;;;;;;4941051;28;20888;-83
2023/04/13 12:17:45;;;;;;;6.50;2.13;;;14.60;69.30;;;;;;4957982;28;20452;-84
2023/04/13 12:21:11;;;;;;;5.43;1.70;;;14.70;68.40;;;;;;4971925;28;20549;-85
2023/04/13 12:27:41;;;;;;;6.70;2.80;;;14.60;67.70;;;;;;4954562;28;20498;-84
2023/04/13 12:30:31;;;;;;;3.73;1.87;;;14.50;68.40;;;;;;4972994;28;20471;-84
2023/04/13 12:33:35;;;;;;;5.00;3.50;;;14.70;68.00;;;;;;4977258;28;20470;-83
2023/04/13 12:36:30;;;;;;;6.53;1.60;;;15.60;64.20;;;;;;4917377;28;21453;-85
2023/04/13 12:39:09;;;;;;;1.73;1.23;;;15.90;59.70;;;;;;4971416;28;20495;-84
2023/04/13 12:45:29;;;;;;;2.90;1.20;;;16.20;58.90;;;;;;4956186;28;20567;-84
2023/04/13 12:48:39;;;;;;;3.70;1.73;;;16.60;58.60;;;;;;4970943;28;20456;-84
2023/04/13 12:51:20;;;;;;;5.43;2.30;;;16.80;57.60;;;;;;4961590;28;20967;-84
2023/04/13 12:54:07;;;;;;;6.37;2.13;;;16.50;57.70;;;;;;4974612;28;20558;-84
2023/04/13 12:57:18;;;;;;;;;;;;;;;;;;;;;
2023/04/13 13:00:09;;;;;;;3.27;1.50;;;16.60;58.20;;;;;;4961443;28;20569;-84
2023/04/13 13:03:24;;;;;;;7.03;2.20;;;17.10;55.60;;;;;;4962122;28;20464;-84
2023/04/13 13:06:21;;;;;;;4.43;1.97;;;17.10;55.30;;;;;;4969367;28;20556;-85
2023/04/13 13:09:14;;;;;;;;;;;;;;;;;;;;;
2023/04/13 13:12:19;;;;;;;5.23;1.87;;;17.40;53.70;;;;;;4964152;28;20475;-85
2023/04/13 13:15:18;;;;;;;4.33;1.77;;;17.50;54.10;;;;;;4960800;28;20582;-84
2023/04/13 13:18:34;;;;;;;3.50;1.50;;;18.20;53.10;;;;;;4956401;28;20475;-85
2023/04/13 13:21:32;;;;;;;6.33;1.80;;;17.90;53.00;;;;;;4980520;28;20521;-87
2023/04/13 13:24:51;;;;;;;5.07;1.93;;;17.30;53.70;;;;;;4956402;28;20444;-84
2023/04/13 13:27:56;;;;;;;3.60;1.93;;;16.90;53.70;;;;;;4959129;28;20555;-85
2023/04/13 13:30:56;;;;;;;4.60;1.80;;;16.60;53.80;;;;;;4958139;28;20563;-83
2023/04/13 13:33:42;;;;;;;4.50;1.87;;;16.90;52.70;;;;;;4972813;28;20468;-81
2023/04/13 13:36:36;;;;;;;3.33;1.40;;;16.80;52.00;;;;;;4957021;28;20472;-83
2023/04/13 13:42:26;;;;;;;5.80;1.50;;;16.60;52.20;;;;;;4958043;28;20464;-84
2023/04/13 13:45:29;;;;;;;;;;;;;;;;;;;;;
2023/04/13 13:48:36;;;;;;;3.60;1.70;;;16.70;51.50;;;;;;4958229;28;20460;-85
2023/04/13 13:52:21;;;;;;;8.83;2.43;;;16.70;51.20;;;;;;4960242;28;21120;-86
2023/04/13 13:55:23;;;;;;;6.90;2.33;;;16.70;50.70;;;;;;4887100;29;20494;-84
2023/04/13 13:58:53;;;;;;;5.77;1.97;;;16.50;50.90;;;;;;4899651;29;20479;-82
2023/04/13 14:02:12;;;;;;;6.07;2.10;;;16.30;52.00;;;;;;4911899;29;20462;-83
2023/04/13 14:05:07;;;;;;;4.60;1.97;;;17.00;51.50;;;;;;4918468;29;20492;-84
2023/04/13 14:07:51;;;;;;;6.70;2.30;;;16.80;51.20;;;;;;4903178;29;21720;-86
2023/04/13 14:10:55;;;;;;;5.10;1.40;;;16.90;51.40;;;;;;4917736;29;20559;-85
2023/04/13 14:13:43;;;;;;;3.60;1.43;;;17.60;50.60;;;;;;4924214;29;20580;-84
2023/04/13 14:16:23;;;;;;;5.50;1.93;;;17.30;50.20;;;;;;4907956;29;21056;-84
2023/04/13 14:19:07;;;;;;;4.30;1.40;;;17.30;50.00;;;;;;4917050;29;20462;-84
2023/04/13 14:22:23;;;;;;;3.23;1.63;;;17.50;49.30;;;;;;4915503;29;20546;-84
2023/04/13 14:25:24;;;;;;;5.63;1.60;;;17.60;49.00;;;;;;4918271;29;20469;-85
2023/04/13 14:28:20;;;;;;;4.67;2.03;;;17.50;48.30;;;;;;4916933;29;20474;-83
2023/04/13 14:31:32;;;;;;;5.10;1.20;;;17.40;47.70;;;;;;4923933;29;20462;-84
2023/04/13 14:34:46;;;;;;;3.77;1.70;;;18.20;46.20;;;;;;4906479;28;20493;-84
2023/04/13 14:37:39;;;;;;;4.30;1.30;;;17.80;46.00;;;;;;4969967;28;20467;-84
2023/04/13 14:40:15;;;;;;;3.90;1.67;;;17.40;47.20;;;;;;4969832;28;20584;-83
2023/04/13 14:43:07;;;;;;;8.87;1.73;;;17.10;47.90;;;;;;4969923;28;20492;-85
2023/04/13 14:46:28;;;;;;;9.00;2.47;;;16.90;48.60;;;;;;4956213;28;20460;-85
2023/04/13 14:49:27;;;;;;;3.60;1.63;;;16.90;49.30;;;;;;4942714;28;20448;-84
2023/04/13 14:52:11;;;;;;;4.10;1.77;;;17.10;50.60;;;;;;4914684;29;20461;-83
2023/04/13 14:55:09;;;;;;;3.80;2.10;;;17.30;49.90;;;;;;4918020;29;20485;-85
2023/04/13 14:58:00;;;;;;;5.50;2.17;;;17.20;49.40;;;;;;4923533;29;20493;-82
2023/04/13 15:01:03;;;;;;;7.23;1.90;;;17.10;49.70;;;;;;4906767;29;20481;-84
2023/04/13 15:03:52;;;;;;;4.90;3.33;;;17.20;49.70;;;;;;4910304;29;20556;-85
2023/04/13 15:06:41;;;;;;;2.80;1.70;;;17.00;49.90;;;;;;4908017;29;20481;-84
2023/04/13 15:09:15;;;;;;;2.80;1.70;;;16.90;48.50;;;;;;4918736;29;20580;-84
2023/04/13 15:11:48;;;;;;;7.57;2.13;;;16.90;48.30;;;;;;4904707;29;21017;-85
2023/04/13 15:14:49;;;;;;;3.30;1.63;;;16.90;47.70;;;;;;4918747;29;20507;-86
2023/04/13 15:17:41;;;;;;;3.07;1.23;;;16.90;47.60;;;;;;4897203;29;20485;-85
2023/04/13 15:20:46;;;;;;;7.80;3.20;;;16.80;48.30;;;;;;4908262;29;21167;-84
2023/04/13 15:23:28;;;;;;;3.87;1.40;;;16.70;48.90;;;;;;4922167;29;20561;-85
2023/04/13 15:26:25;;;;;;;4.43;2.03;;;16.80;49.00;;;;;;4922129;29;20477;-85
2023/04/13 15:29:12;;;;;;;3.83;1.90;;;16.70;49.10;;;;;;4922437;28;20487;-82
2023/04/13 15:31:41;;;;;;;3.90;2.07;;;16.80;49.00;;;;;;4963879;28;20462;-85
2023/04/13 15:34:40;;;;;;;5.30;2.33;;;16.90;48.60;;;;;;4956213;28;20483;-85
2023/04/13 15:37:29;;;;;;;3.40;1.33;;;16.80;48.80;;;;;;4959387;28;20999;-85
2023/04/13 15:40:03;;;;;;;7.80;1.50;;;16.80;47.20;;;;;;4963537;28;20464;-85
2023/04/13 15:42:57;;;;;;;2.37;1.20;;;16.60;45.70;;;;;;4979094;28;20909;-85
2023/04/13 15:45:35;;;;;;;2.00;1.30;;;16.50;45.60;;;;;;4982959;28;20864;-85
2023/04/13 15:48:55;;;;;;;2.10;1.23;;;16.50;44.30;;;;;;4967299;28;21066;-84
2023/04/13 15:52:25;;;;;;;3.10;1.70;;;16.50;44.40;;;;;;5011450;28;20468;-84
2023/04/13 15:55:09;;;;;;;4.30;1.50;;;16.40;45.40;;;;;;4985191;28;20479;-85
2023/04/13 15:58:33;;;;;;;6.93;1.67;;;16.40;46.10;;;;;;4984549;28;20440;-85
2023/04/13 16:05:14;;;;;;;3.30;2.00;;;16.20;47.60;;;;;;4963716;28;20455;-83
2023/04/13 16:08:36;;;;;;;3.13;1.47;;;16.20;47.60;;;;;;4947781;28;20940;-84
2023/04/13 16:12:16;;;;;;;5.93;1.40;;;16.10;47.40;;;;;;4973722;28;20435;-83
2023/04/13 16:15:34;;;;;;;5.33;1.47;;;16.00;47.30;;;;;;4938774;28;20582;-83
2023/04/13 16:22:04;;;;;;;2.17;1.37;;;16.20;46.10;;;;;;4983153;28;20531;-84
2023/04/13 16:28:28;;;;;;;2.37;1.30;;;16.10;46.30;;;;;;4935025;28;20960;-84
2023/04/13 16:31:32;;;;;;;4.40;2.90;;;16.10;46.00;;;;;;4952104;28;20475;-83
2023/04/13 16:37:15;;;;;;;5.07;1.90;;;16.10;45.30;;;;;;4957904;28;20466;-83
2023/04/13 16:43:41;;;;;;;2.33;1.30;;;16.10;45.50;;;;;;4921716;29;20452;-85
2023/04/13 16:46:24;;;;;;;2.77;1.43;;;16.00;45.40;;;;;;4924786;29;20560;-85
2023/04/13 16:53:26;;;;;;;4.30;3.30;;;16.10;45.60;;;;;;4921684;29;20888;-85
2023/04/13 16:56:14;;;;;;;4.10;1.87;;;16.00;45.90;;;;;;4924756;29;20839;-84
2023/04/13 16:58:52;;;;;;;3.20;1.90;;;16.10;46.10;;;;;;4910013;29;20556;-85
2023/04/13 17:01:35;;;;;;;5.80;1.77;;;16.00;46.00;;;;;;4924997;29;20461;-86
2023/04/13 17:04:47;;;;;;;8.83;2.87;;;16.00;46.40;;;;;;4927537;29;20452;-84
2023/04/13 17:07:52;;;;;;;1.63;1.30;;;16.20;46.60;;;;;;4922913;29;21509;-87
2023/04/13 17:10:37;;;;;;;6.93;2.63;;;16.30;46.70;;;;;;4921703;29;20437;-86
2023/04/13 17:13:59;;;;;;;3.70;1.70;;;16.30;46.90;;;;;;4928454;28;20501;-85
2023/04/13 17:17:20;;;;;;;3.67;1.70;;;16.30;46.70;;;;;;4989854;28;20818;-85
2023/04/13 17:20:22;;;;;;;3.00;1.80;;;16.20;46.70;;;;;;4971819;28;20954;-84
2023/04/13 17:23:12;;;;;;;4.37;1.77;;;16.10;46.60;;;;;;4989055;28;20472;-85
2023/04/13 17:29:34;;;;;;;3.90;1.90;;;16.10;47.50;;;;;;4985390;28;20459;-84
2023/04/13 17:33:26;;;;;;;7.20;1.80;;;16.10;47.30;;;;;;4991281;28;20443;-85
2023/04/13 17:36:43;;;;;;;4.13;1.50;;;15.90;46.00;;;;;;4988561;28;20515;-84
2023/04/13 17:39:59;;;;;;;3.20;1.40;;;15.80;45.70;;;;;;4960528;28;20436;-83
2023/04/13 17:42:58;;;;;;;5.20;1.77;;;15.70;44.80;;;;;;5006795;28;20452;-83